createdAt,value
2022-10-23T00:17:37.357Z,0
2022-10-23T00:37:44.590Z,0
2022-10-23T01:17:38.525Z,0
2022-10-23T01:37:37.239Z,0
2022-10-23T02:37:37.120Z,0
2022-10-23T02:57:37.040Z,0
2022-10-23T03:17:43.955Z,0
2022-10-23T03:57:43.916Z,0
2022-10-23T04:17:36.845Z,0
2022-10-23T04:37:44.103Z,0
2022-10-23T05:17:36.805Z,2
2022-10-23T05:37:36.714Z,55
2022-10-23T06:37:36.864Z,3073
2022-10-23T06:57:36.518Z,7290
2022-10-23T07:57:36.434Z,19590
2022-10-23T08:17:36.428Z,31758
2022-10-23T08:37:36.305Z,20546
2022-10-23T09:57:43.411Z,5895
2022-10-23T12:17:35.983Z,3286
2022-10-23T12:57:35.770Z,2707
2022-10-23T13:17:35.693Z,3597
2022-10-23T13:57:35.672Z,2049
2022-10-23T14:17:35.657Z,1463
2022-10-23T14:37:43.703Z,1319
2022-10-23T14:57:42.656Z,1057
2022-10-23T15:57:42.298Z,17
2022-10-23T16:17:42.613Z,0
2022-10-23T16:37:35.262Z,0
2022-10-23T16:57:35.180Z,0
2022-10-23T17:17:35.129Z,0
2022-10-23T17:37:35.062Z,0
2022-10-23T17:57:35.130Z,0
2022-10-23T18:17:35.059Z,0
2022-10-23T18:37:37.757Z,0
2022-10-23T18:57:35.190Z,0
2022-10-23T19:17:34.876Z,0
2022-10-23T19:37:34.780Z,0
2022-10-23T19:57:34.894Z,0
2022-10-23T20:17:34.743Z,0
2022-10-23T20:37:34.669Z,0
2022-10-23T21:17:34.581Z,0
2022-10-23T21:37:34.658Z,0
2022-10-23T21:57:41.478Z,0
2022-10-23T22:37:34.419Z,0
2022-10-23T22:57:34.334Z,0
2022-10-23T23:17:34.314Z,0
2022-10-23T23:37:34.290Z,0
2022-10-23T23:57:34.252Z,0
